Time;durP1;ratioP1;P1;durP2;ratioP2;P2;SDS_P1;SDS_P2;PMS_P1;PMS_P2;Temp;Humidity;BMP_temperature;BMP_pressure;BME280_temperature;BME280_humidity;BME280_pressure;Samples;Min_cycle;Max_cycle;Signal;HPM_P1;HPM_P2
2023/08/15 00:43:43;;;;;;;19.38;14.73;;;18.70;99.90;;;;;;8385212;28;20048;-85
2023/08/15 00:47:44;;;;;;;22.67;15.27;;;18.60;99.90;;;;;;8370201;28;20119;-85
2023/08/15 00:51:46;;;;;;;18.00;14.38;;;18.70;99.90;;;;;;8386535;28;20036;-84
2023/08/15 00:55:48;;;;;;;16.95;13.57;;;18.60;99.90;;;;;;8386127;28;20047;-86
2023/08/15 00:59:49;;;;;;;18.88;13.30;;;18.70;99.90;;;;;;8368605;28;20386;-84
2023/08/15 01:03:51;;;;;;;17.58;13.63;;;18.70;99.90;;;;;;8383983;28;20025;-85
2023/08/15 01:07:52;;;;;;;16.42;12.88;;;18.80;99.90;;;;;;8347536;28;20025;-85
2023/08/15 01:12:11;;;;;;;18.35;13.68;;;18.70;99.90;;;;;;8362770;28;20027;-85
2023/08/15 01:16:17;;;;;;;18.23;14.90;;;18.50;99.90;;;;;;8385266;28;20025;-85
2023/08/15 01:20:23;;;;;;;16.15;14.45;;;18.50;99.90;;;;;;8389917;28;20492;-86
2023/08/15 01:24:24;;;;;;;18.40;13.82;;;18.50;99.90;;;;;;8371025;28;20572;-86
2023/08/15 01:28:25;;;;;;;16.75;12.32;;;18.40;99.90;;;;;;8365264;28;20031;-87
2023/08/15 01:32:36;;;;;;;16.88;13.80;;;18.30;99.90;;;;;;8384179;28;20373;-84
2023/08/15 01:36:43;;;;;;;18.35;15.10;;;18.10;99.90;;;;;;8367637;28;20036;-85
2023/08/15 01:40:46;;;;;;;19.45;14.38;;;18.10;99.90;;;;;;8371652;28;20021;-85
2023/08/15 01:44:47;;;;;;;14.95;13.02;;;18.10;99.90;;;;;;8373407;28;20077;-86
2023/08/15 01:48:48;;;;;;;17.23;13.50;;;18.00;99.90;;;;;;8395369;28;20051;-86
2023/08/15 01:52:48;;;;;;;18.63;15.23;;;17.90;99.90;;;;;;8378072;28;20044;-86
2023/08/15 01:56:49;;;;;;;18.58;13.45;;;17.90;99.90;;;;;;8385175;28;20031;-85
2023/08/15 02:00:50;;;;;;;17.17;13.43;;;17.90;99.90;;;;;;8388843;28;20639;-84
2023/08/15 02:04:50;;;;;;;15.32;12.30;;;17.90;99.90;;;;;;8375195;28;20087;-85
2023/08/15 02:08:51;;;;;;;17.30;12.27;;;17.90;99.90;;;;;;8365350;28;20021;-86
2023/08/15 02:12:51;;;;;;;17.52;12.93;;;18.00;99.90;;;;;;8356926;28;20059;-85
2023/08/15 02:16:52;;;;;;;17.77;13.98;;;18.00;99.90;;;;;;8374038;28;20490;-83
2023/08/15 02:20:53;;;;;;;17.35;13.43;;;18.00;99.90;;;;;;8401223;28;20035;-84
2023/08/15 02:24:53;;;;;;;15.38;10.52;;;18.10;99.90;;;;;;8360603;28;20171;-84
2023/08/15 02:28:54;;;;;;;15.93;12.55;;;17.90;99.90;;;;;;8368749;28;20024;-85
2023/08/15 02:32:54;;;;;;;13.57;10.35;;;17.80;99.90;;;;;;8361245;28;20021;-84
2023/08/15 02:36:55;;;;;;;14.07;11.02;;;17.70;99.90;;;;;;8384335;28;20052;-84
2023/08/15 02:40:55;;;;;;;14.23;11.00;;;17.70;99.90;;;;;;8358866;28;20021;-85
2023/08/15 02:44:56;;;;;;;19.77;12.10;;;17.80;99.90;;;;;;8366075;28;20032;-85
2023/08/15 02:48:56;;;;;;;18.05;12.38;;;17.70;99.90;;;;;;8390817;28;20032;-84
2023/08/15 02:52:57;;;;;;;14.73;12.48;;;17.70;99.90;;;;;;8397432;28;20389;-84
2023/08/15 02:56:57;;;;;;;16.75;11.30;;;17.60;99.90;;;;;;8399107;28;20112;-84
2023/08/15 03:00:58;;;;;;;16.83;12.30;;;17.60;99.90;;;;;;8406580;28;20029;-85
2023/08/15 03:04:58;;;;;;;20.52;14.60;;;17.60;99.90;;;;;;8380743;28;20074;-85
2023/08/15 03:08:59;;;;;;;17.73;12.90;;;17.70;99.90;;;;;;8393068;28;20030;-84
2023/08/15 03:12:59;;;;;;;15.02;11.50;;;17.80;99.90;;;;;;8396422;28;20102;-85
2023/08/15 03:17:02;;;;;;;13.95;11.05;;;18.00;99.90;;;;;;8411285;28;20517;-84
2023/08/15 03:21:04;;;;;;;13.88;11.70;;;17.90;99.90;;;;;;8408286;28;20077;-84
2023/08/15 03:25:05;;;;;;;15.35;11.55;;;17.90;99.90;;;;;;8396001;28;20111;-86
2023/08/15 03:29:05;;;;;;;13.18;11.82;;;17.90;99.90;;;;;;8405203;28;20392;-85
2023/08/15 03:33:06;;;;;;;16.27;12.32;;;17.90;99.90;;;;;;8404069;28;20024;-82
2023/08/15 03:37:06;;;;;;;13.50;12.10;;;17.90;99.90;;;;;;8403880;28;20031;-82
2023/08/15 03:41:07;;;;;;;15.40;12.55;;;18.00;99.90;;;;;;8424169;28;20500;-84
2023/08/15 03:45:07;;;;;;;14.85;12.68;;;18.00;99.90;;;;;;8427995;28;20077;-82
2023/08/15 03:49:08;;;;;;;13.77;11.15;;;18.00;99.90;;;;;;8398317;28;20059;-83
2023/08/15 03:53:09;;;;;;;15.23;11.55;;;18.10;99.90;;;;;;8399056;28;20019;-82
2023/08/15 03:57:09;;;;;;;12.88;10.85;;;18.10;99.90;;;;;;8361558;28;20048;-84
2023/08/15 04:01:10;;;;;;;15.27;10.80;;;18.10;99.90;;;;;;8386641;28;20052;-83
2023/08/15 04:05:11;;;;;;;13.20;9.13;;;18.20;99.90;;;;;;8379250;28;20029;-83
2023/08/15 04:09:11;;;;;;;16.23;10.65;;;18.10;99.90;;;;;;8362520;28;20070;-81
2023/08/15 04:13:13;;;;;;;11.02;9.60;;;18.00;99.90;;;;;;8359161;28;20496;-82
2023/08/15 04:17:13;;;;;;;12.15;10.18;;;17.90;99.90;;;;;;8404982;28;20055;-81
2023/08/15 04:21:14;;;;;;;14.63;11.00;;;17.80;99.90;;;;;;8387083;23;20150;-78
2023/08/15 04:25:14;;;;;;;15.25;10.55;;;17.80;99.90;;;;;;8225623;28;20034;-79
2023/08/15 04:29:15;;;;;;;11.98;9.55;;;17.80;99.90;;;;;;8301468;28;20407;-78
2023/08/15 04:33:16;;;;;;;12.93;11.23;;;18.10;99.90;;;;;;8221105;28;20102;-77
2023/08/15 04:37:16;;;;;;;15.48;10.25;;;18.10;99.90;;;;;;8288267;28;20638;-77
2023/08/15 04:41:17;;;;;;;14.05;11.55;;;18.10;99.90;;;;;;8282315;28;20453;-77
2023/08/15 04:45:17;;;;;;;12.95;10.65;;;18.20;99.90;;;;;;8214431;28;20031;-77
2023/08/15 04:49:18;;;;;;;10.80;9.70;;;18.40;99.90;;;;;;8280929;28;20458;-77
2023/08/15 04:53:18;;;;;;;12.13;10.70;;;18.50;99.90;;;;;;8277402;28;20077;-77
2023/08/15 04:57:19;;;;;;;12.30;9.90;;;18.60;99.90;;;;;;8276192;28;20088;-77
2023/08/15 05:01:19;;;;;;;11.02;9.73;;;18.70;99.90;;;;;;8218904;28;20033;-77
2023/08/15 05:05:20;;;;;;;11.93;9.90;;;18.80;99.90;;;;;;8211035;28;20043;-78
2023/08/15 05:09:21;;;;;;;11.18;9.30;;;19.10;99.90;;;;;;8288163;28;20383;-77
2023/08/15 05:13:22;;;;;;;11.35;8.88;;;19.30;99.90;;;;;;8210919;28;20023;-78
2023/08/15 05:17:22;;;;;;;11.32;10.05;;;19.20;99.90;;;;;;8300559;28;20084;-78
2023/08/15 05:21:23;;;;;;;12.32;10.02;;;19.40;99.90;;;;;;8224240;28;20521;-77
2023/08/15 05:25:23;;;;;;;13.50;9.63;;;19.50;99.90;;;;;;8295551;28;20050;-77
2023/08/15 05:29:24;;;;;;;11.80;9.93;;;19.60;99.90;;;;;;8296214;28;20037;-76
2023/08/15 05:33:25;;;;;;;10.10;9.10;;;19.60;99.90;;;;;;8295705;28;20027;-77
2023/08/15 05:37:25;;;;;;;10.52;8.55;;;19.80;99.90;;;;;;8296101;28;20031;-77
2023/08/15 05:41:26;;;;;;;11.73;8.98;;;20.00;99.90;;;;;;8295703;28;20027;-77
2023/08/15 05:45:26;;;;;;;10.13;8.57;;;20.20;99.90;;;;;;8295649;28;20407;-77
2023/08/15 05:49:27;;;;;;;9.70;8.27;;;20.40;99.90;;;;;;8291331;28;20028;-77
2023/08/15 05:53:27;;;;;;;8.27;7.47;;;20.80;99.90;;;;;;8221237;28;20495;-77
2023/08/15 05:57:28;;;;;;;9.25;7.78;;;21.40;99.90;;;;;;8294984;28;20043;-77
2023/08/15 06:01:28;;;;;;;8.45;7.35;;;21.90;99.90;;;;;;8295241;28;20035;-77
2023/08/15 06:05:32;;;;;;;7.43;6.63;;;22.20;99.90;;;;;;8237871;28;20110;-78
2023/08/15 06:09:33;;;;;;;9.20;7.18;;;22.80;99.90;;;;;;8302905;28;20027;-78
2023/08/15 06:13:33;;;;;;;8.80;7.15;;;22.70;99.90;;;;;;8301944;28;20499;-78
2023/08/15 06:17:34;;;;;;;9.73;7.10;;;22.70;99.90;;;;;;8234619;28;20117;-78
2023/08/15 06:21:35;;;;;;;7.70;6.95;;;22.70;99.90;;;;;;8230934;28;20422;-77
2023/08/15 06:25:38;;;;;;;7.78;6.85;;;22.60;99.90;;;;;;8227462;28;20027;-78
2023/08/15 06:29:38;;;;;;;8.52;7.13;;;22.40;99.90;;;;;;8294420;28;20019;-77
2023/08/15 06:33:39;;;;;;;8.38;7.53;;;22.80;99.90;;;;;;8293870;28;20034;-77
2023/08/15 06:37:39;;;;;;;7.78;6.63;;;23.50;99.90;;;;;;8293653;28;20039;-78
2023/08/15 06:41:40;;;;;;;7.53;6.80;;;24.10;99.90;;;;;;8293862;28;20038;-78
2023/08/15 06:45:40;;;;;;;9.00;7.13;;;24.20;99.90;;;;;;8293415;28;20118;-78
2023/08/15 06:49:41;;;;;;;8.13;6.88;;;24.50;99.90;;;;;;8289576;28;20038;-77
2023/08/15 06:53:44;;;;;;;11.52;7.60;;;24.60;99.90;;;;;;8226450;28;20019;-78
2023/08/15 06:57:45;;;;;;;8.23;7.43;;;24.60;99.90;;;;;;8293428;28;20027;-78
2023/08/15 07:01:45;;;;;;;8.50;7.57;;;24.40;99.90;;;;;;8292849;28;20535;-78
2023/08/15 07:05:46;;;;;;;8.90;7.05;;;24.40;99.90;;;;;;8236622;28;20034;-78
2023/08/15 07:09:46;;;;;;;8.55;6.93;;;24.60;99.90;;;;;;8233998;28;20437;-78
2023/08/15 07:13:47;;;;;;;9.77;6.70;;;24.70;99.90;;;;;;8292158;28;20044;-78
2023/08/15 07:17:47;;;;;;;13.43;7.03;;;25.90;99.90;;;;;;8292342;28;20034;-78
2023/08/15 07:21:48;;;;;;;12.18;6.00;;;27.30;99.90;;;;;;8287589;28;20113;-78
2023/08/15 07:25:49;;;;;;;408.38;188.30;;;28.50;99.90;;;;;;8292787;28;20038;-78
2023/08/15 07:29:49;;;;;;;8.68;6.03;;;29.00;99.90;;;;;;8224876;28;20023;-78
2023/08/15 07:33:50;;;;;;;11.07;5.65;;;29.40;99.90;;;;;;8225738;28;20058;-78
2023/08/15 07:37:50;;;;;;;9.30;5.60;;;29.50;99.90;;;;;;8225946;28;20479;-79
2023/08/15 07:41:51;;;;;;;13.07;5.55;;;29.20;99.90;;;;;;8291779;28;20023;-78
2023/08/15 07:45:51;;;;;;;6.88;4.70;;;28.80;99.90;;;;;;8292228;28;20033;-78
2023/08/15 07:50:12;;;;;;;10.00;4.78;;;28.90;99.90;;;;;;8220584;28;20497;-78
2023/08/15 07:54:13;;;;;;;7.28;4.50;;;29.40;99.90;;;;;;8291957;28;20027;-78
2023/08/15 07:58:13;;;;;;;6.35;4.85;;;29.20;99.90;;;;;;8225177;28;20030;-78
2023/08/15 08:02:14;;;;;;;7.45;4.60;;;28.70;99.90;;;;;;8291713;28;20486;-78
2023/08/15 08:06:15;;;;;;;7.50;4.70;;;28.80;99.90;;;;;;8234916;28;20023;-78
2023/08/15 08:10:15;;;;;;;7.22;4.80;;;28.50;99.90;;;;;;8299509;28;20106;-78
2023/08/15 08:14:16;;;;;;;10.60;4.97;;;28.50;99.90;;;;;;8232185;28;20054;-78
2023/08/15 08:18:16;;;;;;;11.10;5.68;;;28.50;99.90;;;;;;8290808;28;20112;-78
2023/08/15 08:22:17;;;;;;;10.50;7.47;;;28.40;99.90;;;;;;8286052;28;20031;-78
2023/08/15 08:26:17;;;;;;;24.55;16.08;;;28.50;99.90;;;;;;8290891;28;20038;-78
2023/08/15 08:30:20;;;;;;;9.68;6.72;;;28.70;99.90;;;;;;8290935;28;20019;-78
2023/08/15 08:34:21;;;;;;;4.78;4.25;;;28.60;99.90;;;;;;8290128;28;20031;-78
2023/08/15 08:38:21;;;;;;;7.00;5.20;;;28.60;99.90;;;;;;8254647;28;20092;-78
2023/08/15 08:42:23;;;;;;;5.22;4.72;;;28.70;99.90;;;;;;8223816;28;20487;-79
2023/08/15 08:46:23;;;;;;;3.78;3.00;;;28.60;99.90;;;;;;8223868;28;20402;-78
2023/08/15 08:50:26;;;;;;;3.55;2.97;;;28.80;99.90;;;;;;8285806;28;20034;-79
2023/08/15 08:54:27;;;;;;;8.27;4.82;;;28.90;99.90;;;;;;8223789;28;20031;-78
2023/08/15 08:58:29;;;;;;;9.75;4.72;;;29.20;99.90;;;;;;8290035;28;20027;-79
2023/08/15 09:02:30;;;;;;;6.35;4.47;;;29.90;99.90;;;;;;8281823;28;20495;-79
2023/08/15 09:06:30;;;;;;;15.35;5.90;;;30.50;99.90;;;;;;8299822;28;20023;-79
2023/08/15 09:10:31;;;;;;;17.50;6.85;;;31.00;99.90;;;;;;8230970;28;20574;-79
2023/08/15 09:14:32;;;;;;;6.65;4.85;;;32.00;99.90;;;;;;8230390;28;20058;-79
2023/08/15 09:18:33;;;;;;;8.23;4.43;;;33.10;99.90;;;;;;8289268;28;20027;-79
2023/08/15 09:22:37;;;;;;;6.15;3.65;;;33.40;99.90;;;;;;8293664;28;20141;-78
2023/08/15 09:26:39;;;;;;;9.10;4.00;;;33.30;99.90;;;;;;8296178;28;20026;-79
2023/08/15 09:30:52;;;;;;;8.15;4.30;;;32.80;99.90;;;;;;8223045;28;20019;-79
2023/08/15 09:34:53;;;;;;;4.65;3.30;;;32.30;99.90;;;;;;8289190;28;20060;-79
2023/08/15 09:38:58;;;;;;;8.10;3.42;;;32.40;99.90;;;;;;8222137;28;20052;-79
2023/08/15 09:42:58;;;;;;;10.25;3.25;;;32.30;99.90;;;;;;8288485;28;20407;-79
2023/08/15 09:47:01;;;;;;;8.98;3.67;;;32.40;99.90;;;;;;8288656;28;20081;-79
2023/08/15 09:51:02;;;;;;;6.63;3.20;;;32.10;98.70;;;;;;8285683;28;20380;-79
2023/08/15 09:55:03;;;;;;;8.55;3.80;;;31.80;99.90;;;;;;8235468;28;20471;-79
2023/08/15 09:59:04;;;;;;;8.93;3.97;;;31.90;99.90;;;;;;8294412;28;20060;-79
2023/08/15 10:03:33;;;;;;;6.63;4.15;;;32.20;99.90;;;;;;8296904;28;20117;-79
2023/08/15 10:07:35;;;;;;;7.72;3.75;;;32.30;99.90;;;;;;8284707;28;20084;-79
2023/08/15 10:11:39;;;;;;;8.68;3.40;;;32.30;99.90;;;;;;8301881;28;20027;-79
2023/08/15 10:15:40;;;;;;;6.88;3.35;;;32.10;99.90;;;;;;8309740;28;20141;-79
2023/08/15 10:19:49;;;;;;;5.97;2.75;;;31.10;99.90;;;;;;8345643;22;20123;-82
2023/08/15 10:23:53;;;;;;;5.35;3.10;;;30.60;99.30;;;;;;8414590;28;20162;-82
2023/08/15 10:27:55;;;;;;;6.38;3.33;;;30.10;99.90;;;;;;8398438;28;20043;-82
2023/08/15 10:32:00;;;;;;;9.98;3.22;;;29.50;99.90;;;;;;8409621;28;20009;-82
2023/08/15 10:36:00;;;;;;;5.22;2.80;;;28.70;99.90;;;;;;8397250;28;20021;-83
2023/08/15 10:40:13;;;;;;;11.90;3.38;;;29.20;99.90;;;;;;8378662;28;20042;-82
2023/08/15 10:44:15;;;;;;;8.00;3.35;;;29.70;99.90;;;;;;8396477;28;20025;-82
2023/08/15 10:48:47;;;;;;;9.88;3.50;;;30.00;99.90;;;;;;8404585;28;20480;-82
2023/08/15 10:53:04;;;;;;;9.88;3.33;;;30.00;99.90;;;;;;8373269;28;20050;-82
2023/08/15 10:57:05;;;;;;;7.63;3.45;;;29.80;99.90;;;;;;8377725;28;20028;-83
2023/08/15 11:01:06;;;;;;;8.02;3.75;;;29.90;99.90;;;;;;8377894;28;20077;-82
2023/08/15 11:05:07;;;;;;;5.60;3.15;;;29.60;99.90;;;;;;8378670;28;20027;-82
2023/08/15 11:09:10;;;;;;;6.65;3.10;;;29.20;99.90;;;;;;8410622;28;20027;-82
2023/08/15 11:13:11;;;;;;;10.32;3.28;;;29.10;99.90;;;;;;8387715;28;20028;-82
2023/08/15 11:17:12;;;;;;;9.43;3.33;;;28.50;99.90;;;;;;8409570;28;20387;-82
2023/08/15 11:21:14;;;;;;;9.05;3.65;;;28.00;99.90;;;;;;8388592;28;20341;-82
2023/08/15 11:25:18;;;;;;;6.95;3.42;;;27.70;99.90;;;;;;8403075;28;20114;-82
2023/08/15 11:29:18;;;;;;;7.60;3.50;;;27.50;99.90;;;;;;8405636;28;20103;-82
2023/08/15 11:33:19;;;;;;;4.50;3.33;;;27.40;99.90;;;;;;8410336;28;20476;-81
2023/08/15 11:37:20;;;;;;;6.85;3.60;;;27.30;99.90;;;;;;8401647;28;20092;-82
2023/08/15 11:41:21;;;;;;;8.88;3.42;;;27.20;99.90;;;;;;8410042;28;20123;-81
2023/08/15 11:45:22;;;;;;;5.20;3.45;;;27.20;99.90;;;;;;8401528;28;20024;-83
2023/08/15 11:49:23;;;;;;;9.00;3.72;;;27.30;99.90;;;;;;8399902;28;20475;-82
2023/08/15 11:53:24;;;;;;;10.25;4.60;;;27.10;99.90;;;;;;8398312;28;20016;-83
2023/08/15 11:57:36;;;;;;;9.40;3.92;;;27.20;99.90;;;;;;8427458;28;20384;-82
2023/08/15 12:01:43;;;;;;;6.65;4.05;;;27.20;99.90;;;;;;8412371;28;20043;-82
2023/08/15 12:05:46;;;;;;;10.18;4.00;;;27.50;99.90;;;;;;8399044;28;20020;-82
2023/08/15 12:09:47;;;;;;;8.50;3.92;;;27.50;99.90;;;;;;8408198;28;20484;-81
2023/08/15 12:13:48;;;;;;;11.73;4.45;;;26.90;99.90;;;;;;8407026;28;20035;-82
2023/08/15 12:17:48;;;;;;;5.75;3.95;;;26.00;99.90;;;;;;8407976;28;20036;-81
2023/08/15 12:21:50;;;;;;;9.73;4.80;;;25.70;99.90;;;;;;8396268;28;20036;-82
2023/08/15 12:25:50;;;;;;;8.85;4.07;;;25.80;99.90;;;;;;8400116;28;20085;-81
2023/08/15 12:29:51;;;;;;;10.55;4.50;;;26.00;99.90;;;;;;8408279;28;21356;-82
2023/08/15 12:33:51;;;;;;;13.15;4.80;;;26.30;99.90;;;;;;8408228;28;20070;-82
2023/08/15 12:37:52;;;;;;;10.05;4.95;;;27.30;99.90;;;;;;8383596;28;20530;-82
2023/08/15 12:41:52;;;;;;;6.25;4.10;;;28.10;99.90;;;;;;8407086;28;20092;-83
2023/08/15 12:45:54;;;;;;;6.47;3.72;;;28.60;99.90;;;;;;8399850;28;20023;-82
2023/08/15 12:49:55;;;;;;;8.70;4.40;;;29.10;99.90;;;;;;8393451;28;20016;-83
2023/08/15 12:53:55;;;;;;;12.77;4.00;;;29.20;99.90;;;;;;8425039;28;20016;-83
2023/08/15 12:57:56;;;;;;;6.47;3.65;;;29.50;99.90;;;;;;8395595;28;20019;-83
2023/08/15 13:01:56;;;;;;;10.00;3.90;;;29.00;99.90;;;;;;8401358;28;20016;-83
2023/08/15 13:05:57;;;;;;;13.60;4.32;;;28.70;99.90;;;;;;8395510;28;20181;-83
2023/08/15 13:09:58;;;;;;;11.00;4.70;;;28.60;99.90;;;;;;8424709;28;20020;-82
2023/08/15 13:13:58;;;;;;;9.77;4.88;;;28.60;99.90;;;;;;8406059;28;20016;-82
2023/08/15 13:17:59;;;;;;;8.98;4.45;;;28.00;99.90;;;;;;8406440;28;20036;-83
2023/08/15 13:21:59;;;;;;;8.05;4.60;;;27.90;99.90;;;;;;8409447;28;20082;-83
2023/08/15 13:26:00;;;;;;;9.32;4.85;;;27.90;99.90;;;;;;8422680;28;20023;-82
2023/08/15 13:30:00;;;;;;;8.70;5.40;;;28.20;99.90;;;;;;8412582;28;20061;-82
2023/08/15 13:34:01;;;;;;;12.63;5.68;;;28.90;99.90;;;;;;8408436;28;20024;-83
2023/08/15 13:38:02;;;;;;;8.30;5.03;;;29.50;99.90;;;;;;8407499;28;20039;-82
2023/08/15 13:42:03;;;;;;;3.67;2.85;;;30.30;99.90;;;;;;8395384;28;20020;-83
2023/08/15 13:46:05;;;;;;;4.57;2.53;;;31.40;99.90;;;;;;8421813;28;20446;-83
2023/08/15 13:50:08;;;;;;;5.90;4.20;;;33.00;99.90;;;;;;8391546;28;20103;-83
2023/08/15 13:54:09;;;;;;;7.97;4.35;;;36.40;99.90;;;;;;8402796;28;20046;-83
2023/08/15 13:58:09;;;;;;;5.72;3.78;;;35.80;98.10;;;;;;8412739;28;20027;-83
2023/08/15 14:02:10;;;;;;;5.20;3.35;;;38.00;93.90;;;;;;8407914;28;20584;-83
2023/08/15 14:06:10;;;;;;;6.57;3.85;;;40.20;83.00;;;;;;8392836;28;20028;-82
2023/08/15 14:10:12;;;;;;;6.65;4.10;;;40.80;74.50;;;;;;8409663;28;20046;-83
2023/08/15 14:14:13;;;;;;;9.20;4.47;;;41.80;68.30;;;;;;8401398;28;20120;-83
2023/08/15 14:18:13;;;;;;;6.53;3.60;;;41.90;62.10;;;;;;8401905;28;20404;-83
2023/08/15 14:22:14;;;;;;;7.63;3.92;;;42.40;65.50;;;;;;8356975;28;20035;-83
2023/08/15 14:26:15;;;;;;;7.18;3.70;;;42.30;64.90;;;;;;8373536;28;20028;-83
2023/08/15 14:30:16;;;;;;;7.55;4.10;;;41.90;59.10;;;;;;8381917;28;20496;-82
2023/08/15 14:34:17;;;;;;;6.93;4.18;;;41.60;58.30;;;;;;8390998;28;20431;-83
2023/08/15 14:38:17;;;;;;;8.95;3.70;;;41.80;59.90;;;;;;8424993;28;20030;-83
2023/08/15 14:42:18;;;;;;;7.88;3.60;;;42.30;55.70;;;;;;8410388;28;20106;-83
2023/08/15 14:46:18;;;;;;;6.65;3.83;;;41.90;58.50;;;;;;8428371;28;20395;-84
2023/08/15 14:50:19;;;;;;;7.43;3.70;;;41.80;56.70;;;;;;8415580;28;20419;-84
2023/08/15 14:54:20;;;;;;;9.68;3.95;;;42.60;55.20;;;;;;8427031;28;20046;-84
2023/08/15 14:58:21;;;;;;;9.25;4.10;;;42.70;54.70;;;;;;8400859;28;20024;-84
2023/08/15 15:02:21;;;;;;;6.97;3.75;;;43.00;54.10;;;;;;8391131;28;20052;-83
2023/08/15 15:06:22;;;;;;;6.95;4.10;;;43.00;54.30;;;;;;8366671;28;20051;-81
2023/08/15 15:10:23;;;;;;;6.97;3.83;;;43.30;52.70;;;;;;8367962;28;20024;-82
2023/08/15 15:14:23;;;;;;;6.75;4.10;;;43.00;51.70;;;;;;8396771;28;20032;-82
2023/08/15 15:18:24;;;;;;;9.30;4.10;;;42.40;52.90;;;;;;8374083;28;20496;-82
2023/08/15 15:22:24;;;;;;;6.18;4.10;;;42.60;54.00;;;;;;8356824;28;20033;-81
2023/08/15 15:26:25;;;;;;;9.50;4.13;;;42.80;54.60;;;;;;8360747;28;20028;-82
2023/08/15 15:30:26;;;;;;;5.72;3.95;;;41.80;58.40;;;;;;8375006;28;20037;-81
2023/08/15 15:34:27;;;;;;;7.82;3.83;;;39.50;61.70;;;;;;8372169;28;20025;-80
2023/08/15 15:38:27;;;;;;;7.95;4.40;;;38.40;60.50;;;;;;8348954;28;20047;-80
2023/08/15 15:42:28;;;;;;;9.35;3.97;;;38.20;60.50;;;;;;8349073;28;20069;-81
2023/08/15 15:46:28;;;;;;;7.50;4.20;;;36.40;64.10;;;;;;8356202;28;20405;-81
2023/08/15 15:50:29;;;;;;;10.20;4.25;;;37.50;69.30;;;;;;8383754;28;20048;-81
2023/08/15 15:54:29;;;;;;;7.88;4.35;;;35.90;66.70;;;;;;8363899;28;20033;-81
2023/08/15 15:58:30;;;;;;;9.52;4.55;;;33.50;74.20;;;;;;8366168;28;20086;-81
2023/08/15 16:02:31;;;;;;;8.95;4.22;;;31.50;83.20;;;;;;8385203;28;20090;-80
2023/08/15 16:06:31;;;;;;;8.32;4.28;;;30.20;89.80;;;;;;8390811;28;20056;-81
2023/08/15 16:10:32;;;;;;;8.70;4.70;;;29.60;90.80;;;;;;8370568;28;20020;-80
2023/08/15 16:14:33;;;;;;;8.20;4.35;;;29.30;92.20;;;;;;8374514;28;20239;-81
2023/08/15 16:18:33;;;;;;;7.43;4.50;;;29.10;91.80;;;;;;8376826;28;20128;-80
2023/08/15 16:22:34;;;;;;;7.28;4.63;;;28.90;95.00;;;;;;8386001;28;20408;-83
2023/08/15 16:26:34;;;;;;;7.85;4.78;;;28.90;95.90;;;;;;8397380;28;20028;-82
2023/08/15 16:30:35;;;;;;;6.32;4.40;;;28.80;95.60;;;;;;8373927;28;20480;-83
2023/08/15 16:34:36;;;;;;;11.40;4.70;;;28.70;96.30;;;;;;8373448;28;20031;-83
2023/08/15 16:38:37;;;;;;;8.98;5.03;;;28.70;95.60;;;;;;8389263;28;20024;-83
2023/08/15 16:42:38;;;;;;;12.73;4.80;;;28.70;97.70;;;;;;8373460;28;20109;-83
2023/08/15 16:46:38;;;;;;;8.05;4.35;;;28.30;99.80;;;;;;8391299;28;20450;-83
2023/08/15 16:50:40;;;;;;;7.30;4.65;;;27.80;99.90;;;;;;8394345;28;20114;-83
2023/08/15 16:54:40;;;;;;;10.60;4.82;;;27.40;99.90;;;;;;8397128;28;20514;-83
2023/08/15 16:58:41;;;;;;;6.78;5.15;;;27.40;99.90;;;;;;8388347;28;20016;-83
2023/08/15 17:02:41;;;;;;;11.60;4.88;;;27.20;99.90;;;;;;8404364;28;20517;-83
2023/08/15 17:06:42;;;;;;;7.95;5.60;;;27.10;99.90;;;;;;8405203;28;20031;-83
2023/08/15 17:10:42;;;;;;;7.18;4.80;;;27.30;99.90;;;;;;8411775;28;20040;-83
2023/08/15 17:14:43;;;;;;;9.13;5.18;;;27.40;99.90;;;;;;8411048;28;20034;-83
2023/08/15 17:18:43;;;;;;;11.95;5.78;;;27.10;99.90;;;;;;8410598;28;20028;-83
2023/08/15 17:22:44;;;;;;;8.48;5.03;;;27.20;99.90;;;;;;8389879;28;20302;-83
2023/08/15 17:26:45;;;;;;;8.95;5.88;;;26.80;99.90;;;;;;8388889;28;20040;-83
2023/08/15 17:30:45;;;;;;;9.77;5.32;;;26.50;99.90;;;;;;8394663;28;20404;-83
2023/08/15 17:34:46;;;;;;;9.00;4.65;;;26.30;99.90;;;;;;8406093;28;20028;-83
2023/08/15 17:38:46;;;;;;;7.45;4.93;;;26.30;99.90;;;;;;8404166;28;20130;-83
2023/08/15 17:42:47;;;;;;;7.57;5.07;;;26.00;99.90;;;;;;8372228;28;20507;-83
2023/08/15 17:46:47;;;;;;;7.30;5.60;;;25.80;99.90;;;;;;8394809;28;20031;-82
2023/08/15 17:50:48;;;;;;;10.57;5.05;;;25.80;99.90;;;;;;8374577;28;20031;-83
2023/08/15 17:54:48;;;;;;;7.75;5.05;;;25.30;99.90;;;;;;8398601;28;20521;-83
2023/08/15 17:58:50;;;;;;;9.75;5.15;;;25.40;99.90;;;;;;8377156;28;20033;-83
2023/08/15 18:02:50;;;;;;;7.20;4.30;;;25.30;99.90;;;;;;8412985;28;20024;-82
2023/08/15 18:06:51;;;;;;;12.25;4.70;;;25.20;99.90;;;;;;8396628;28;20074;-83
2023/08/15 18:10:52;;;;;;;6.75;4.05;;;25.20;99.90;;;;;;8409297;28;20111;-83
2023/08/15 18:14:52;;;;;;;6.35;3.92;;;25.00;99.90;;;;;;8419323;28;20026;-83
2023/08/15 18:18:53;;;;;;;10.20;4.28;;;24.90;99.90;;;;;;8393301;28;20057;-83
2023/08/15 18:22:54;;;;;;;8.00;5.53;;;24.80;99.90;;;;;;8373830;28;20032;-83
2023/08/15 18:26:55;;;;;;;5.85;4.85;;;24.80;99.90;;;;;;8400994;28;20103;-83
2023/08/15 18:30:56;;;;;;;9.68;4.93;;;24.30;99.90;;;;;;8386000;28;20094;-83
2023/08/15 18:34:56;;;;;;;7.57;4.50;;;24.10;99.90;;;;;;8377252;28;20032;-82
2023/08/15 18:38:57;;;;;;;5.82;3.90;;;24.30;99.90;;;;;;8385716;28;20020;-82
2023/08/15 18:42:57;;;;;;;5.53;3.30;;;24.30;99.90;;;;;;8377079;28;20023;-82
2023/08/15 18:46:59;;;;;;;9.43;3.95;;;24.30;99.90;;;;;;8377144;28;20032;-83
2023/08/15 18:51:00;;;;;;;6.78;3.78;;;24.20;99.90;;;;;;8389028;28;20021;-82
2023/08/15 18:55:01;;;;;;;8.82;4.03;;;24.10;99.90;;;;;;8412957;28;20107;-82
2023/08/15 18:59:01;;;;;;;5.68;3.40;;;24.00;99.90;;;;;;8392680;28;20081;-82
2023/08/15 19:03:02;;;;;;;4.53;3.45;;;23.70;99.90;;;;;;8378442;28;20527;-83
2023/08/15 19:07:03;;;;;;;4.38;3.10;;;23.50;99.90;;;;;;8398340;28;20051;-82
2023/08/15 19:11:04;;;;;;;6.28;3.20;;;23.30;99.90;;;;;;8391668;28;20023;-82
2023/08/15 19:15:05;;;;;;;5.15;3.38;;;23.10;99.90;;;;;;8407180;28;20020;-82
2023/08/15 19:19:05;;;;;;;9.35;3.00;;;23.00;99.90;;;;;;8402747;28;20377;-83
2023/08/15 19:23:06;;;;;;;7.07;3.58;;;23.00;99.90;;;;;;8386210;28;20108;-83
2023/08/15 19:27:08;;;;;;;6.00;3.40;;;23.00;99.90;;;;;;8398132;28;20027;-83
2023/08/15 19:31:11;;;;;;;6.28;3.17;;;23.20;99.90;;;;;;8406320;28;20111;-81
2023/08/15 19:35:12;;;;;;;6.10;2.97;;;23.00;99.90;;;;;;8397818;28;20102;-81
2023/08/15 19:39:12;;;;;;;7.05;3.20;;;22.80;99.90;;;;;;8386627;28;20042;-81
2023/08/15 19:43:13;;;;;;;8.32;3.70;;;22.60;99.90;;;;;;8379422;28;20027;-81
2023/08/15 19:47:13;;;;;;;27.42;7.05;;;22.30;99.90;;;;;;8404021;28;20024;-80
2023/08/15 19:51:14;;;;;;;7.82;4.78;;;21.60;99.90;;;;;;8378766;28;20028;-84
2023/08/15 19:55:14;;;;;;;10.68;4.85;;;20.90;99.90;;;;;;8373202;28;20086;-86
2023/08/15 19:59:15;;;;;;;9.75;5.60;;;20.20;99.90;;;;;;8366883;28;20036;-86
2023/08/15 20:03:15;;;;;;;0.00;0.00;;;20.10;99.90;;;;;;8392874;28;20024;-87
2023/08/15 20:07:17;;;;;;;0.10;0.10;;;19.90;99.90;;;;;;8403570;28;20047;-86
2023/08/15 20:11:18;;;;;;;0.85;0.85;;;19.70;99.90;;;;;;8405547;28;20101;-89
2023/08/15 20:15:19;;;;;;;1.58;1.48;;;19.60;99.90;;;;;;8399391;28;20227;-88
2023/08/15 20:19:19;;;;;;;4.80;1.77;;;19.50;99.90;;;;;;8397462;28;20090;-88
2023/08/15 20:23:20;;;;;;;0.00;0.00;;;19.40;99.90;;;;;;8370507;28;20488;-88
2023/08/15 20:27:20;;;;;;;0.00;0.00;;;19.20;99.90;;;;;;8389440;28;20028;-87
2023/08/15 20:31:21;;;;;;;0.10;0.10;;;19.30;99.90;;;;;;8399180;28;20463;-87
2023/08/15 20:35:21;;;;;;;0.13;0.13;;;19.30;99.90;;;;;;8375623;28;20020;-87
2023/08/15 20:39:22;;;;;;;0.10;0.10;;;19.10;99.90;;;;;;8379271;28;20118;-87
2023/08/15 20:43:22;;;;;;;0.00;0.00;;;19.00;99.90;;;;;;8384397;28;20400;-84
2023/08/15 20:47:23;;;;;;;0.10;0.10;;;18.90;99.90;;;;;;8391275;28;20028;-84
2023/08/15 20:51:24;;;;;;;0.10;0.10;;;19.00;99.90;;;;;;8368840;28;20500;-85
2023/08/15 20:55:25;;;;;;;0.10;0.10;;;18.90;99.90;;;;;;8389309;28;20029;-84
2023/08/15 20:59:25;;;;;;;0.00;0.00;;;18.70;99.90;;;;;;8371823;28;20035;-85
2023/08/15 21:03:26;;;;;;;0.10;0.10;;;18.60;99.90;;;;;;8370071;28;20028;-84
2023/08/15 21:07:26;;;;;;;0.00;0.00;;;18.40;99.90;;;;;;8368064;28;20056;-85
2023/08/15 21:11:27;;;;;;;0.10;0.10;;;18.60;99.90;;;;;;8385253;28;20460;-85
2023/08/15 21:15:27;;;;;;;0.10;0.10;;;18.30;99.90;;;;;;8404157;28;20024;-84
2023/08/15 21:19:28;;;;;;;0.05;0.05;;;18.20;99.90;;;;;;8393981;28;20036;-84
2023/08/15 21:23:28;;;;;;;0.00;0.00;;;18.00;99.90;;;;;;8392819;28;20484;-84
2023/08/15 21:27:29;;;;;;;0.00;0.00;;;17.90;99.90;;;;;;8380374;28;20024;-85